• Join FlightAware (Why Join?)
  • Login
  • US Flag 
Trick or treat! (Boo!!) 
05:56AM EDT


 

Airport Tracker/Info


-or-


 

Live Flight TrackerFlight Track Log ✈ N700QA ✈ 11-Sep-2013 ✈ KDAL - KAPA

Flight Track Log - Related Links

Times and Time Zones

All times are in EDT time to prevent confusion due to time zone crossing. See the N700QA flight status page for this flight to view local times or setup timezone preferences in your user account.

Time Position Orientation Groundspeed Altitude Reporting Facility
EDT Latitude Longitude Course Direction KTS MPH feet Rate Location/Type
01:47PM 32.8333 -96.8333 121° Southeast 174 200 1,300  Level Dallas / Fort Worth TRACON
01:48PM 32.8167 -96.8000 121° Southeast 174 200 2,400 2,220 Climbing Dallas / Fort Worth TRACON
01:49PM 32.7833 -96.7667 140° Southeast 218 251 4,700 2,460 Climbing Dallas / Fort Worth TRACON
01:50PM 32.7500 -96.7000 121° Southeast 224 258 7,400 2,580 Climbing Dallas / Fort Worth TRACON
01:51PM 32.8167 -96.6833 12° North 274 315 9,900 2,400 Climbing Dallas / Fort Worth TRACON
01:52PM 32.8833 -96.7500 320° Northwest 282 325 12,200 2,100 Climbing Dallas / Fort Worth TRACON
01:53PM 32.9500 -96.8000 328° Northwest 299 344 14,200 1,800 Climbing Dallas / Fort Worth TRACON
01:55PM 33.1081 -96.9547 321° Northwest 320 368 18,500 1,740 Climbing Fort Worth Center
01:56PM 33.1897 -97.0186 327° Northwest 325 374 20,400 1,500 Climbing Fort Worth Center
01:57PM 33.2650 -97.0681 331° Northwest 330 380 21,500 1,260 Climbing Fort Worth Center
01:58PM 33.3569 -97.1275 332° Northwest 342 394 23,000 1,320 Climbing Fort Worth Center
01:59PM 33.4364 -97.1769 333° Northwest 347 399 24,200 1,080 Climbing Fort Worth Center
02:00PM 33.5200 -97.2317 331° Northwest 347 399 25,200 900 Climbing Fort Worth Center
02:01PM 33.6097 -97.2889 332° Northwest 353 406 26,000 660 Climbing Fort Worth Center
02:02PM 33.7017 -97.3486 332° Northwest 358 412 26,600 780 Climbing Fort Worth Center
02:03PM 33.7914 -97.4086 331° Northwest 363 418 27,600 960 Climbing Fort Worth Center
02:04PM 33.8792 -97.4661 331° Northwest 363 418 28,600 1,020 Climbing Fort Worth Center
02:05PM 33.9689 -97.5286 330° Northwest 363 418 29,700 660 Climbing Fort Worth Center
02:06PM 34.0583 -97.5839 333° Northwest 363 418 30,000 120 Climbing Fort Worth Center
02:07PM 34.1586 -97.6594 328° Northwest 370 426 30,000  Level Fort Worth Center
02:08PM 34.2564 -97.7250 331° Northwest 382 440 30,100 480 Climbing Fort Worth Center
02:09PM 34.3522 -97.7883 331° Northwest 393 452 31,000 900 Climbing Fort Worth Center
02:10PM 34.4458 -97.8492 332° Northwest 393 452 31,900 840 Climbing Fort Worth Center
02:11PM 34.5353 -97.9100 331° Northwest 380 437 32,700 720 Climbing Fort Worth Center
02:12PM 34.6122 -97.9636 330° Northwest 366 421 33,400 780 Climbing Fort Worth Center
02:13PM 34.6956 -98.0197 331° Northwest 354 407 34,300 780 Climbing Fort Worth Center
02:14PM 34.7786 -98.0758 331° Northwest 349 402 35,000 600 Climbing Fort Worth Center
02:15PM 34.8556 -98.1422 325° Northwest 349 402 35,600 480 Climbing Fort Worth Center
02:16PM 34.9156 -98.2339 309° West 344 396 36,000 180 Climbing Fort Worth Center
02:17PM 34.9794 -98.3283 310° West 347 399 36,000  Level Fort Worth Center
02:18PM 35.0433 -98.4253 309° West 361 415 36,100  Climbing Fort Worth Center
02:19PM 35.1175 -98.5303 311° West 374 430 36,100  Level Fort Worth Center
02:20PM 35.1814 -98.6303 308° West 374 430 36,100  Level Fort Worth Center
02:21PM 35.2492 -98.7328 309° West 374 430 36,100  Level Fort Worth Center
02:22PM 35.3125 -98.8331 308° West 374 430 36,100  Level Fort Worth Center
02:23PM 35.3761 -98.9311 309° West 374 430 36,100  Level Fort Worth Center
02:25PM 35.4942 -99.1144 308° West 373 429 36,100  Level Kansas City Center
02:26PM 35.5578 -99.2153 308° West 372 428 36,100  Level Kansas City Center
02:27PM 35.6222 -99.3167 308° West 372 428 36,100  Level Kansas City Center
02:28PM 35.6875 -99.4183 308° West 373 429 36,100  Level Kansas City Center
02:29PM 35.7528 -99.5186 309° West 373 429 36,100  Level Kansas City Center
02:30PM 35.8356 -99.6006 321° Northwest 379 436 36,100  Level Kansas City Center
02:31PM 35.9147 -99.6861 319° Northwest 375 432 36,100  Level Kansas City Center
02:32PM 35.9911 -99.7753 317° Northwest 375 432 36,100  Level Kansas City Center
02:33PM 36.0700 -99.8614 319° Northwest 376 433 36,100  Level Kansas City Center
02:34PM 36.1483 -99.9481 318° Northwest 375 432 36,100  Level Kansas City Center
02:35PM 36.2431 -100.0536 318° Northwest 378 435 36,100  Level Kansas City Center
02:36PM 36.3222 -100.1411 318° Northwest 379 436 36,100  Level Kansas City Center
02:37PM 36.3994 -100.2308 317° Northwest 379 436 36,100  Level Kansas City Center
02:38PM 36.4778 -100.3200 318° Northwest 380 437 36,100  Level Kansas City Center
02:40PM 36.5586 -100.4106 318° Northwest 381 438 36,100 60 Level Kansas City Center
02:41PM 36.6464 -100.5114 317° Northwest 384 442 36,300 360 Climbing Kansas City Center
02:42PM 36.7192 -100.5961 317° Northwest 378 435 36,900 600 Climbing Kansas City Center
02:43PM 36.8044 -100.6919 318° Northwest 371 427 37,600 480 Climbing Kansas City Center
02:44PM 36.8744 -100.7750 317° Northwest 365 420 38,000 180 Climbing Kansas City Center
02:45PM 36.9456 -100.8581 317° Northwest 365 420 38,000  Level Kansas City Center
02:46PM 37.0200 -100.9650 311° West 366 421 38,000  Level Kansas City Center
02:47PM 37.0814 -101.0639 308° West 372 428 38,000  Level Kansas City Center
02:48PM 37.1625 -101.1689 314° West 374 430 38,000  Level Kansas City Center
02:49PM 37.2372 -101.2561 317° Northwest 379 436 38,000  Level Kansas City Center
02:50PM 37.3144 -101.3689 311° West 380 437 38,000  Level Kansas City Center
02:51PM 37.3797 -101.4661 310° West 380 437 38,000  Level Kansas City Center
02:52PM 37.4453 -101.5617 311° West 377 434 38,000 -120 Level Kansas City Center
02:53PM 37.5203 -101.6722 311° West 373 429 37,800 -420 Descending Kansas City Center
02:54PM 37.5853 -101.7717 310° West 379 436 37,200 -720 Descending Kansas City Center
02:55PM 37.6650 -101.8872 311° West 388 447 36,400 -600 Descending Kansas City Center
02:56PM 37.7336 -101.9897 310° West 394 453 36,000 -240 Descending Kansas City Center
02:57PM 37.8114 -102.1064 310° West 391 450 36,000  Level Kansas City Center
02:58PM 37.8467 -102.1553 312° West 385 443 36,000 -60 Level Denver Center
02:59PM 37.9211 -102.2731 309° West 384 442 35,900  Descending Denver Center
03:00PM 37.9956 -102.3858 310° West 376 433 36,000  Climbing Denver Center
03:01PM 38.0600 -102.4833 310° West 375 432 35,900 -240 Descending Denver Center
03:02PM 38.1203 -102.6061 302° West 369 425 35,600 -600 Descending Denver Center
03:03PM 38.1619 -102.7231 294° West 377 434 34,700 -960 Descending Denver Center
03:04PM 38.2231 -102.8592 300° West 394 453 33,700 -1,020 Descending Denver Center
03:05PM 38.2706 -102.9747 298° West 388 447 32,600 -1,440 Descending Denver Center
03:06PM 38.3258 -103.1103 297° West 387 445 30,700 -1,920 Descending Denver Center
03:07PM 38.3733 -103.2275 297° West 389 448 28,700 -2,220 Descending Denver Center
03:08PM 38.4314 -103.3650 298° West 392 451 26,200 -2,160 Descending Denver Center
03:09PM 38.4733 -103.4697 297° West 398 458 24,300 -2,100 Descending Denver Center
03:10PM 38.5297 -103.6067 298° West 391 450 21,900 -2,340 Descending Denver Center
03:11PM 38.5839 -103.7400 297° West 377 434 19,500 -2,100 Descending Denver Center
03:12PM 38.6278 -103.8486 297° West 362 417 17,600 -1,680 Descending Denver Center
03:13PM 38.6750 -103.9697 297° West 349 402 16,100 -780 Descending Denver Center
03:14PM 38.7161 -104.0686 298° West 336 387 16,100 -120 Level Denver Center
03:15PM 38.7447 -104.1367 298° West 347 399 16,000 -120 Descending Denver Center
03:16PM 38.7658 -104.1925 296° West 345 397 16,000 -720 Level Denver Center
03:17PM 38.8283 -104.3169 303° West 330 380 14,800 -1,020 Descending Denver Center
03:18PM 38.9017 -104.3689 331° Northwest 316 364 13,900 -840 Descending Denver Center
03:19PM 38.9739 -104.4153 333° Northwest 306 352 13,100 -900 Descending Denver Center
03:20PM 39.0533 -104.4747 330° Northwest 283 326 12,100 -720 Descending Denver Center
03:21PM 39.1183 -104.5236 330° Northwest 264 304 11,700 -780 Descending Denver Center
03:22PM 39.1811 -104.5861 322° Northwest 281 323 10,500 -1,200 Descending Denver Center
03:23PM 39.2531 -104.6542 324° Northwest 298 343 9,300 -720 Descending Denver Center
03:24PM 39.3142 -104.7117 324° Northwest 275 316 9,100 -180 Descending Denver Center
03:25PM 39.3703 -104.7656 323° Northwest 258 297 9,000 -360 Descending Denver Center
03:26PM 39.4269 -104.8217 323° Northwest 242 278 8,400 -540 Descending Denver Center
03:27PM 39.4808 -104.8469 340° North 214 246 7,900 -960 Descending Denver Center
03:28PM 39.5344 -104.8483 359° North 178 205 6,500 -1,080 Descending Denver Center
03:29PM 39.5667 -104.8522 355° North 149 171 5,800 -720 Descending Denver Center
03:31PM 39.5701 -104.8493 57° Northeast  Level Estimated
03:38PM 39.5701 -104.8493 237° Southwest  Level Estimated
03:39PM 39.5701 -104.8493 237° Southwest  Level Estimated